Time;durP1;ratioP1;P1;durP2;ratioP2;P2;SDS_P1;SDS_P2;PMS_P1;PMS_P2;Temp;Humidity;BMP_temperature;BMP_pressure;BME280_temperature;BME280_humidity;BME280_pressure;Samples;Min_cycle;Max_cycle;Signal;HPM_P1;HPM_P2
2023/03/15 00:01:30;;;;;;;6.13;3.83;;;31.00;99.90;;;;;;5054128;28;20177;-77
2023/03/15 00:03:58;;;;;;;8.30;4.53;;;30.90;99.90;;;;;;5053058;28;20181;-75
2023/03/15 00:06:26;;;;;;;7.90;4.55;;;31.20;99.90;;;;;;5049965;28;20182;-78
2023/03/15 00:08:53;;;;;;;15.35;4.30;;;31.10;99.90;;;;;;5052929;28;20652;-72
2023/03/15 00:11:21;;;;;;;6.45;4.03;;;31.40;99.90;;;;;;5053397;28;20670;-73
2023/03/15 00:13:50;;;;;;;9.48;4.25;;;31.20;99.90;;;;;;5053064;28;20215;-74
2023/03/15 00:16:18;;;;;;;10.57;4.40;;;31.00;99.90;;;;;;5053596;28;20609;-74
2023/03/15 00:18:46;;;;;;;6.20;3.90;;;30.80;99.90;;;;;;5053475;28;20176;-72
2023/03/15 00:21:14;;;;;;;10.65;4.18;;;31.10;99.90;;;;;;5054728;28;20177;-70
2023/03/15 00:23:42;;;;;;;10.20;3.70;;;31.70;99.90;;;;;;5054558;28;20228;-76
2023/03/15 00:26:10;;;;;;;13.07;4.22;;;32.40;99.90;;;;;;5051826;28;20223;-75
2023/03/15 00:28:38;;;;;;;8.30;4.32;;;32.00;99.90;;;;;;5054851;28;20181;-75
2023/03/15 00:31:16;;;;;;;6.82;4.00;;;31.50;99.90;;;;;;5069667;28;20555;-71
2023/03/15 00:33:44;;;;;;;10.93;4.25;;;31.30;99.90;;;;;;5052481;28;20211;-76
2023/03/15 00:36:12;;;;;;;7.43;3.97;;;32.10;99.90;;;;;;5053590;28;20192;-75
2023/03/15 00:38:45;;;;;;;6.35;3.90;;;32.30;99.90;;;;;;5053491;28;20184;-71
2023/03/15 00:41:15;;;;;;;8.00;3.72;;;32.70;99.90;;;;;;5052141;28;20185;-73
2023/03/15 00:46:53;;;;;;;6.03;3.72;;;32.90;99.90;;;;;;5010068;28;20368;-73
2023/03/15 00:49:21;;;;;;;5.53;3.75;;;32.80;99.90;;;;;;5032646;28;20207;-74
2023/03/15 00:51:48;;;;;;;7.85;4.22;;;32.90;99.90;;;;;;5033818;28;20227;-76
2023/03/15 00:54:16;;;;;;;7.38;3.47;;;32.40;99.90;;;;;;5033738;28;20263;-73
2023/03/15 00:56:44;;;;;;;6.22;4.07;;;32.60;99.90;;;;;;5033314;28;20173;-73
2023/03/15 00:59:12;;;;;;;6.07;4.45;;;32.50;99.90;;;;;;5033574;28;20194;-73
2023/03/15 01:01:43;;;;;;;7.55;3.63;;;32.90;99.90;;;;;;5032503;28;20257;-73
2023/03/15 01:04:14;;;;;;;6.03;3.60;;;32.80;99.90;;;;;;5046671;28;20193;-78
2023/03/15 01:06:42;;;;;;;9.23;4.22;;;33.20;99.90;;;;;;5052323;28;20238;-79
2023/03/15 01:09:10;;;;;;;7.78;4.38;;;33.40;99.90;;;;;;5052735;28;20238;-79
2023/03/15 01:11:38;;;;;;;7.88;4.10;;;33.50;99.90;;;;;;5043327;28;20180;-78
2023/03/15 01:14:07;;;;;;;6.97;3.70;;;33.90;99.90;;;;;;5052692;28;20736;-77
2023/03/15 01:16:35;;;;;;;7.10;3.92;;;34.60;99.90;;;;;;5053351;28;20235;-79
2023/03/15 01:19:03;;;;;;;6.57;4.15;;;34.70;99.90;;;;;;5051976;28;20192;-75
2023/03/15 01:21:31;;;;;;;5.90;3.67;;;34.50;99.90;;;;;;5053093;28;20196;-76
2023/03/15 01:23:59;;;;;;;4.63;3.55;;;34.40;99.90;;;;;;5053179;28;20228;-74
2023/03/15 01:26:27;;;;;;;6.63;3.80;;;34.50;99.90;;;;;;5033735;28;20185;-78
2023/03/15 01:28:55;;;;;;;7.55;4.15;;;34.30;99.90;;;;;;5046919;28;20196;-79
2023/03/15 01:31:29;;;;;;;5.90;4.00;;;34.10;99.90;;;;;;5052031;28;20227;-80
2023/03/15 01:33:58;;;;;;;6.43;4.03;;;33.70;99.90;;;;;;5051150;28;20299;-77
2023/03/15 01:36:26;;;;;;;7.22;4.07;;;34.10;99.90;;;;;;5068414;28;20234;-78
2023/03/15 01:38:53;;;;;;;5.88;4.32;;;34.10;99.90;;;;;;5049832;28;20199;-78
2023/03/15 01:41:23;;;;;;;5.10;4.60;;;33.90;99.90;;;;;;5032462;28;20170;-75
2023/03/15 01:43:51;;;;;;;5.65;3.80;;;33.90;99.90;;;;;;5032945;28;20181;-75
2023/03/15 01:46:28;;;;;;;8.25;4.40;;;34.10;99.90;;;;;;5032686;28;20228;-78
2023/03/15 01:49:14;;;;;;;7.95;4.05;;;34.20;99.90;;;;;;5032446;28;20563;-78
2023/03/15 01:51:48;;;;;;;10.23;5.25;;;34.40;99.90;;;;;;5048055;28;20610;-78
2023/03/15 01:54:33;;;;;;;6.53;4.35;;;34.60;99.90;;;;;;5047185;28;20322;-76
2023/03/15 01:57:17;;;;;;;7.75;3.95;;;34.60;99.90;;;;;;5049213;28;20176;-79
2023/03/15 01:59:56;;;;;;;6.28;4.28;;;34.40;99.90;;;;;;5052674;28;20178;-81
2023/03/15 02:02:25;;;;;;;6.93;4.38;;;33.80;99.90;;;;;;5052173;28;20168;-75
2023/03/15 02:04:58;;;;;;;5.78;4.22;;;33.40;99.90;;;;;;5051779;28;20280;-75
2023/03/15 02:07:28;;;;;;;4.38;3.88;;;33.40;99.90;;;;;;5046478;28;20192;-72
2023/03/15 02:10:10;;;;;;;7.95;4.30;;;33.60;99.90;;;;;;5032135;28;20193;-78
2023/03/15 02:12:45;;;;;;;7.43;4.78;;;33.90;99.90;;;;;;5032414;28;20188;-79
2023/03/15 02:15:15;;;;;;;6.35;3.88;;;34.20;99.90;;;;;;5032336;28;20185;-74
2023/03/15 02:17:45;;;;;;;8.13;4.55;;;34.30;99.90;;;;;;5031297;28;20185;-79
2023/03/15 02:20:45;;;;;;;6.85;4.25;;;34.40;99.90;;;;;;5032260;28;20185;-76
2023/03/15 02:23:16;;;;;;;5.95;4.32;;;33.70;99.90;;;;;;5031937;28;20228;-77
2023/03/15 02:26:10;;;;;;;6.80;4.45;;;33.60;99.90;;;;;;5035522;28;20185;-75
2023/03/15 02:28:39;;;;;;;13.52;5.18;;;33.60;99.90;;;;;;5051094;28;20205;-77
2023/03/15 02:31:06;;;;;;;8.00;4.78;;;34.00;99.90;;;;;;5051618;28;20609;-72
2023/03/15 02:33:45;;;;;;;8.13;3.83;;;34.50;99.90;;;;;;5051119;28;20748;-73
2023/03/15 02:36:23;;;;;;;7.47;4.78;;;34.80;99.90;;;;;;5052158;28;20243;-80
2023/03/15 02:38:52;;;;;;;8.23;4.43;;;34.50;99.90;;;;;;5034335;28;20213;-79
2023/03/15 02:41:34;;;;;;;5.65;4.03;;;34.60;99.90;;;;;;5031314;28;20173;-76
2023/03/15 02:44:22;;;;;;;4.90;3.42;;;34.50;99.90;;;;;;5047547;28;20518;-76
2023/03/15 02:46:52;;;;;;;8.50;4.10;;;34.90;99.90;;;;;;5049743;28;20752;-78
2023/03/15 02:49:25;;;;;;;4.47;3.83;;;34.40;99.90;;;;;;5051802;28;20187;-78
2023/03/15 02:51:52;;;;;;;5.15;3.67;;;34.00;99.90;;;;;;5051890;28;20195;-79
2023/03/15 02:54:20;;;;;;;7.25;3.83;;;34.50;99.90;;;;;;5049607;28;20212;-77
2023/03/15 02:56:48;;;;;;;5.60;3.45;;;34.40;99.90;;;;;;5051779;28;20283;-77
2023/03/15 02:59:16;;;;;;;4.35;3.53;;;34.60;99.90;;;;;;5054823;28;20188;-77
2023/03/15 03:01:44;;;;;;;4.28;3.72;;;34.70;99.90;;;;;;5055272;28;20172;-75
2023/03/15 03:04:12;;;;;;;8.45;3.85;;;34.00;99.90;;;;;;5055728;28;20563;-79
2023/03/15 03:06:42;;;;;;;5.22;3.35;;;34.30;99.90;;;;;;5043988;28;20189;-75
2023/03/15 03:09:11;;;;;;;7.80;3.75;;;34.50;99.90;;;;;;5035127;28;20671;-76
2023/03/15 03:11:39;;;;;;;5.25;3.00;;;35.00;99.90;;;;;;5035297;28;20231;-76
2023/03/15 03:14:06;;;;;;;4.70;3.50;;;35.00;99.90;;;;;;5054011;28;20208;-71
2023/03/15 03:16:34;;;;;;;4.85;3.30;;;35.10;99.90;;;;;;5053933;28;20200;-82
2023/03/15 03:19:02;;;;;;;6.78;3.50;;;34.80;99.90;;;;;;5047640;28;20185;-83
2023/03/15 03:21:30;;;;;;;4.20;3.10;;;34.50;99.90;;;;;;5035057;28;20650;-78
2023/03/15 03:23:58;;;;;;;4.32;3.47;;;34.60;99.90;;;;;;5038738;28;20303;-82
2023/03/15 03:26:26;;;;;;;4.90;2.92;;;34.60;99.90;;;;;;5035348;28;20177;-82
2023/03/15 03:28:55;;;;;;;4.88;3.45;;;34.70;99.90;;;;;;5035104;28;20201;-71
2023/03/15 03:31:25;;;;;;;7.30;3.67;;;34.50;99.90;;;;;;5034774;28;20185;-77
2023/03/15 03:33:55;;;;;;;5.95;3.13;;;34.40;99.90;;;;;;5054711;28;20224;-74
2023/03/15 03:36:23;;;;;;;7.40;3.50;;;34.40;99.90;;;;;;5037179;28;20185;-70
2023/03/15 03:38:52;;;;;;;5.28;3.00;;;34.20;99.90;;;;;;5034393;28;20176;-77
2023/03/15 03:41:20;;;;;;;5.07;3.33;;;34.50;99.90;;;;;;5033347;28;20185;-72
2023/03/15 03:43:48;;;;;;;9.50;3.60;;;34.70;99.90;;;;;;5055776;28;20559;-78
2023/03/15 03:46:16;;;;;;;3.58;3.10;;;34.90;99.90;;;;;;5052356;28;20635;-74
2023/03/15 03:48:44;;;;;;;6.10;3.05;;;35.00;99.90;;;;;;5051277;28;20195;-74
2023/03/15 03:51:12;;;;;;;5.63;3.30;;;34.90;99.90;;;;;;5055741;28;20172;-73
2023/03/15 03:53:39;;;;;;;3.28;2.60;;;34.80;99.90;;;;;;5055760;28;20239;-73
2023/03/15 03:56:08;;;;;;;3.53;2.97;;;34.90;99.90;;;;;;5071171;28;20176;-73
2023/03/15 03:58:36;;;;;;;4.40;2.63;;;34.70;99.90;;;;;;5055629;28;20585;-73
2023/03/15 04:01:04;;;;;;;3.63;2.70;;;34.10;99.90;;;;;;5055817;28;20169;-73
2023/03/15 04:03:32;;;;;;;5.10;3.05;;;33.40;99.90;;;;;;5055731;28;20183;-72
2023/03/15 04:06:00;;;;;;;4.20;3.00;;;32.70;99.90;;;;;;5055658;28;20183;-73
2023/03/15 04:08:28;;;;;;;10.98;3.50;;;32.50;99.90;;;;;;5055299;28;20211;-72
2023/03/15 04:10:57;;;;;;;4.75;3.25;;;32.10;99.90;;;;;;5055630;28;20202;-73
2023/03/15 04:13:26;;;;;;;5.95;3.35;;;31.90;99.90;;;;;;5055589;28;20287;-73
2023/03/15 04:15:56;;;;;;;3.35;2.70;;;31.90;99.90;;;;;;5055572;28;20255;-73
2023/03/15 04:18:30;;;;;;;3.58;2.80;;;31.90;99.90;;;;;;5055870;28;20638;-73
2023/03/15 04:21:02;;;;;;;4.32;3.20;;;32.10;99.90;;;;;;5055709;28;20247;-73
2023/03/15 04:23:30;;;;;;;6.13;3.05;;;32.30;99.90;;;;;;5055172;28;20263;-72
2023/03/15 04:25:58;;;;;;;3.40;3.03;;;32.80;99.90;;;;;;5055142;28;20169;-73
2023/03/15 04:28:25;;;;;;;3.67;3.38;;;33.10;99.90;;;;;;5055169;28;20180;-73
2023/03/15 04:30:57;;;;;;;3.65;2.90;;;33.00;99.90;;;;;;5055095;28;20181;-73
2023/03/15 04:33:25;;;;;;;3.50;3.00;;;33.00;99.90;;;;;;5055054;28;20322;-73
2023/03/15 04:35:53;;;;;;;8.82;3.15;;;32.80;99.90;;;;;;5055111;28;20173;-73
2023/03/15 04:38:25;;;;;;;4.55;3.25;;;32.50;99.90;;;;;;5055223;28;20181;-73
2023/03/15 04:40:54;;;;;;;4.15;3.53;;;32.30;99.90;;;;;;5054865;28;20181;-73
2023/03/15 04:43:23;;;;;;;5.85;3.55;;;31.80;99.90;;;;;;5055067;28;20192;-73
2023/03/15 04:45:51;;;;;;;6.80;3.50;;;31.60;99.90;;;;;;5054874;28;20199;-73
2023/03/15 04:48:18;;;;;;;6.10;3.92;;;31.50;99.90;;;;;;5054676;28;20188;-73
2023/03/15 04:50:46;;;;;;;5.25;3.70;;;31.40;99.90;;;;;;5054699;28;20177;-73
2023/03/15 04:53:14;;;;;;;7.07;3.88;;;31.10;99.90;;;;;;5069862;28;20683;-73
2023/03/15 04:55:42;;;;;;;8.57;3.97;;;31.00;99.90;;;;;;5054745;28;20212;-73
2023/03/15 04:58:09;;;;;;;7.25;4.63;;;30.80;99.90;;;;;;5054699;28;20525;-73
2023/03/15 05:00:37;;;;;;;11.70;4.57;;;30.90;99.90;;;;;;5054575;28;20181;-73
2023/03/15 05:03:05;;;;;;;15.40;5.53;;;30.60;99.90;;;;;;5054463;28;20271;-73
2023/03/15 05:05:34;;;;;;;10.63;4.80;;;30.40;99.90;;;;;;5054495;28;20299;-73
2023/03/15 05:08:01;;;;;;;13.77;5.15;;;30.30;99.90;;;;;;5054338;28;20192;-72
2023/03/15 05:10:32;;;;;;;9.50;4.67;;;30.50;99.90;;;;;;5054357;28;20173;-73
2023/03/15 05:12:59;;;;;;;9.10;4.73;;;30.80;99.90;;;;;;5054275;28;20207;-73
2023/03/15 05:15:27;;;;;;;11.63;5.40;;;31.10;99.90;;;;;;5054256;28;20191;-73
2023/03/15 05:17:54;;;;;;;8.90;4.43;;;31.20;99.90;;;;;;5069882;28;20180;-73
2023/03/15 05:20:23;;;;;;;13.20;5.27;;;30.90;99.90;;;;;;5053592;28;20242;-73
2023/03/15 05:22:54;;;;;;;9.73;4.57;;;30.70;99.90;;;;;;5054159;28;20270;-73
2023/03/15 05:25:23;;;;;;;12.37;4.87;;;30.80;99.90;;;;;;5054424;28;20650;-73
2023/03/15 05:27:51;;;;;;;13.70;5.28;;;31.10;99.90;;;;;;5054219;28;20173;-73
2023/03/15 05:30:20;;;;;;;8.55;4.03;;;31.30;99.90;;;;;;5054454;28;20176;-73
2023/03/15 05:32:47;;;;;;;9.27;3.97;;;31.50;99.90;;;;;;5053924;28;20212;-74
2023/03/15 05:35:15;;;;;;;7.10;4.20;;;31.40;99.90;;;;;;5054188;28;20518;-74
2023/03/15 05:37:42;;;;;;;10.85;3.78;;;31.40;99.90;;;;;;5054074;28;20199;-73
2023/03/15 05:40:10;;;;;;;6.90;3.95;;;31.20;99.90;;;;;;5054272;28;20509;-73
2023/03/15 05:42:37;;;;;;;10.80;3.38;;;31.10;99.90;;;;;;5054032;28;20169;-74
2023/03/15 05:45:06;;;;;;;9.00;3.63;;;30.90;99.90;;;;;;5069249;28;20267;-73
2023/03/15 05:47:33;;;;;;;7.00;4.07;;;30.80;99.90;;;;;;5053624;28;20179;-73
2023/03/15 05:50:01;;;;;;;8.23;3.67;;;30.80;99.90;;;;;;5053860;28;20181;-74
2023/03/15 05:52:28;;;;;;;7.55;3.22;;;30.80;99.90;;;;;;5053732;28;20187;-73
2023/03/15 05:54:56;;;;;;;10.70;3.73;;;30.70;99.90;;;;;;5053544;28;20219;-73
2023/03/15 05:57:23;;;;;;;12.10;3.72;;;30.60;99.90;;;;;;5053681;28;20204;-73
2023/03/15 05:59:50;;;;;;;7.37;3.33;;;30.60;99.90;;;;;;5053600;28;20169;-73
2023/03/15 06:02:18;;;;;;;9.40;3.70;;;30.50;99.90;;;;;;5053430;28;20673;-73
2023/03/15 06:04:45;;;;;;;8.87;4.23;;;30.50;99.90;;;;;;5053515;28;20311;-73
2023/03/15 06:07:13;;;;;;;7.75;4.38;;;30.50;99.90;;;;;;5053265;28;20653;-73
2023/03/15 06:09:40;;;;;;;8.37;3.70;;;30.40;99.90;;;;;;5053502;28;20177;-73
2023/03/15 06:12:07;;;;;;;9.30;4.70;;;30.30;99.90;;;;;;5053257;28;20192;-73
2023/03/15 06:14:35;;;;;;;7.00;3.80;;;30.40;99.90;;;;;;5052991;28;20223;-73
2023/03/15 06:17:03;;;;;;;7.97;4.33;;;30.20;99.90;;;;;;5053154;28;20668;-73
2023/03/15 06:19:30;;;;;;;8.63;4.40;;;30.20;99.90;;;;;;5053235;28;20277;-73
2023/03/15 06:21:58;;;;;;;12.27;5.57;;;30.00;99.90;;;;;;5052887;28;20200;-73
2023/03/15 06:24:25;;;;;;;16.50;5.67;;;30.00;99.90;;;;;;5068654;28;20686;-73
2023/03/15 06:26:53;;;;;;;9.40;4.93;;;29.90;99.90;;;;;;5052955;28;20262;-73
2023/03/15 06:29:21;;;;;;;11.60;5.10;;;29.80;99.90;;;;;;5053297;28;20195;-72
2023/03/15 06:31:49;;;;;;;9.00;4.80;;;29.70;99.90;;;;;;5052278;28;20190;-73
2023/03/15 06:34:17;;;;;;;10.47;5.03;;;29.80;99.90;;;;;;5052998;28;20219;-73
2023/03/15 06:36:45;;;;;;;10.97;5.07;;;29.90;99.90;;;;;;5053282;28;20168;-73
2023/03/15 06:39:13;;;;;;;11.53;4.70;;;29.80;99.90;;;;;;5052862;28;20230;-73
2023/03/15 06:41:41;;;;;;;11.35;4.43;;;29.80;99.90;;;;;;5052763;28;20181;-72
2023/03/15 06:44:09;;;;;;;13.30;5.53;;;29.80;99.90;;;;;;5052758;28;20264;-72
2023/03/15 06:46:37;;;;;;;14.03;4.37;;;29.80;99.90;;;;;;5052809;28;20263;-72
2023/03/15 06:49:04;;;;;;;11.07;4.83;;;29.80;99.90;;;;;;5052975;28;20650;-71
2023/03/15 06:51:31;;;;;;;14.03;5.63;;;29.60;99.90;;;;;;5052681;28;20181;-72
2023/03/15 06:53:59;;;;;;;7.80;4.20;;;29.60;99.90;;;;;;5052786;28;20246;-73
2023/03/15 06:56:28;;;;;;;11.33;4.77;;;29.50;99.90;;;;;;5053063;28;20184;-72
2023/03/15 06:58:55;;;;;;;7.47;3.90;;;29.40;99.90;;;;;;5052774;28;20176;-73
2023/03/15 07:01:23;;;;;;;9.43;4.17;;;29.50;99.90;;;;;;5052481;28;20350;-72
2023/03/15 07:03:50;;;;;;;9.57;4.47;;;29.50;99.90;;;;;;5052680;28;20181;-72
2023/03/15 07:06:17;;;;;;;12.97;5.27;;;29.50;99.90;;;;;;5052578;28;20714;-72
2023/03/15 07:08:45;;;;;;;10.03;4.73;;;29.40;99.90;;;;;;5052339;28;20229;-72
2023/03/15 07:11:13;;;;;;;10.23;5.37;;;29.50;99.90;;;;;;5052520;28;20634;-73
2023/03/15 07:13:40;;;;;;;14.40;6.00;;;29.30;99.90;;;;;;5052262;28;20211;-73
2023/03/15 07:16:08;;;;;;;9.23;5.27;;;29.10;99.90;;;;;;5052617;28;20623;-72
2023/03/15 07:18:35;;;;;;;11.30;5.43;;;28.80;99.90;;;;;;5052438;28;20704;-73
2023/03/15 07:21:06;;;;;;;14.47;5.70;;;28.50;99.90;;;;;;5052555;28;20238;-72
2023/03/15 07:23:34;;;;;;;12.30;5.87;;;28.20;99.90;;;;;;5052090;28;20251;-72
2023/03/15 07:26:02;;;;;;;10.43;5.27;;;28.00;99.90;;;;;;5052360;28;20177;-73
2023/03/15 07:28:29;;;;;;;15.40;6.37;;;27.90;99.90;;;;;;5052105;28;20203;-74
2023/03/15 07:30:59;;;;;;;13.47;6.23;;;27.70;99.90;;;;;;5052540;28;20172;-73
2023/03/15 07:33:27;;;;;;;12.57;5.67;;;27.50;99.90;;;;;;5052218;28;20243;-72
2023/03/15 07:35:55;;;;;;;11.97;6.07;;;27.30;99.90;;;;;;5052565;28;20222;-72
2023/03/15 07:41:44;;;;;;;12.43;5.70;;;27.00;99.90;;;;;;5051629;28;20184;-73
2023/03/15 07:44:12;;;;;;;14.50;6.53;;;26.80;99.90;;;;;;5054262;28;20212;-73
2023/03/15 07:46:39;;;;;;;15.03;6.47;;;26.70;99.90;;;;;;5056066;28;20180;-72
2023/03/15 07:49:07;;;;;;;12.23;6.33;;;26.60;99.90;;;;;;5055917;28;20208;-72
2023/03/15 07:51:34;;;;;;;13.63;6.33;;;26.40;99.90;;;;;;5055850;28;20203;-73
2023/03/15 07:54:02;;;;;;;12.77;6.43;;;26.30;99.90;;;;;;5055895;28;20204;-72
2023/03/15 07:56:29;;;;;;;11.13;5.63;;;26.30;99.90;;;;;;5056145;28;20169;-73
2023/03/15 07:58:57;;;;;;;15.23;6.33;;;26.30;99.90;;;;;;5056100;28;20226;-73
2023/03/15 08:01:24;;;;;;;12.70;6.57;;;26.20;99.90;;;;;;5055639;28;20585;-72
2023/03/15 08:03:51;;;;;;;11.90;6.20;;;26.10;99.90;;;;;;5055916;28;20199;-73
2023/03/15 08:06:19;;;;;;;12.90;6.87;;;26.00;99.90;;;;;;5055990;28;20211;-73
2023/03/15 08:08:46;;;;;;;15.33;6.10;;;26.00;99.90;;;;;;5055654;28;20176;-73
2023/03/15 08:11:13;;;;;;;14.73;5.70;;;25.90;99.90;;;;;;5055457;28;20169;-73
2023/03/15 08:13:41;;;;;;;13.10;6.23;;;25.80;99.90;;;;;;5055521;28;20227;-73
2023/03/15 08:16:08;;;;;;;9.33;5.53;;;25.80;99.90;;;;;;5055434;28;20180;-74
2023/03/15 08:18:36;;;;;;;11.77;6.33;;;25.70;99.90;;;;;;5055427;28;20180;-73
2023/03/15 08:21:03;;;;;;;12.23;6.50;;;25.70;99.90;;;;;;5055329;28;20181;-72
2023/03/15 08:23:30;;;;;;;13.20;5.97;;;25.60;99.90;;;;;;5055121;28;20777;-72
2023/03/15 08:25:58;;;;;;;17.63;6.77;;;25.50;99.90;;;;;;5055369;28;20244;-73
2023/03/15 08:28:25;;;;;;;13.17;6.73;;;25.50;99.90;;;;;;5055814;28;20188;-74
2023/03/15 08:30:53;;;;;;;10.03;5.27;;;25.40;99.90;;;;;;5055340;28;20230;-73
2023/03/15 08:33:21;;;;;;;11.57;6.27;;;25.30;99.90;;;;;;5055263;28;20208;-73
2023/03/15 08:35:52;;;;;;;14.67;6.50;;;25.20;99.90;;;;;;5055369;28;20188;-73
2023/03/15 08:38:20;;;;;;;12.70;6.90;;;25.10;99.90;;;;;;5070519;28;20238;-73
2023/03/15 08:40:47;;;;;;;13.93;6.63;;;25.00;99.90;;;;;;5054896;28;20173;-73
2023/03/15 08:43:15;;;;;;;11.77;6.30;;;25.00;99.90;;;;;;5054902;28;20267;-73
2023/03/15 08:45:42;;;;;;;13.33;7.30;;;25.00;99.90;;;;;;5054968;28;20549;-73
2023/03/15 08:48:13;;;;;;;10.37;5.80;;;24.90;99.90;;;;;;5070237;28;20192;-72
2023/03/15 08:50:40;;;;;;;10.53;6.50;;;24.80;99.90;;;;;;5055576;28;20581;-73
2023/03/15 08:53:08;;;;;;;15.73;7.07;;;24.80;99.90;;;;;;5054741;28;20231;-73
2023/03/15 08:55:36;;;;;;;10.10;6.63;;;24.60;99.90;;;;;;5054224;28;20212;-73
2023/03/15 08:58:04;;;;;;;8.90;5.97;;;24.60;99.90;;;;;;5054283;28;20179;-73
2023/03/15 09:00:32;;;;;;;11.47;6.63;;;24.50;99.90;;;;;;5070230;28;20235;-73
2023/03/15 09:03:00;;;;;;;10.60;5.97;;;24.40;99.90;;;;;;5054754;28;20523;-73
2023/03/15 09:05:27;;;;;;;11.47;6.30;;;24.40;99.90;;;;;;5070099;28;20183;-73
2023/03/15 09:07:55;;;;;;;15.00;6.63;;;24.30;99.90;;;;;;5069943;28;20180;-74
2023/03/15 09:10:22;;;;;;;13.47;7.30;;;24.30;99.90;;;;;;5054553;28;20176;-73
2023/03/15 09:12:52;;;;;;;13.90;7.17;;;24.20;99.90;;;;;;5054415;28;20181;-74
2023/03/15 09:15:20;;;;;;;11.10;6.70;;;24.20;99.90;;;;;;5054678;28;20536;-74
2023/03/15 09:17:50;;;;;;;12.00;6.80;;;24.10;99.90;;;;;;5054338;28;20569;-74
2023/03/15 09:20:20;;;;;;;11.30;6.30;;;24.10;99.90;;;;;;5054325;28;20185;-73
2023/03/15 09:22:57;;;;;;;13.73;7.13;;;24.00;99.90;;;;;;5054371;28;20594;-74
2023/03/15 09:25:25;;;;;;;17.57;7.03;;;24.00;99.90;;;;;;5054358;28;20188;-73
2023/03/15 09:27:53;;;;;;;12.67;7.63;;;23.90;99.90;;;;;;5054438;28;20204;-73
2023/03/15 09:30:20;;;;;;;13.50;6.87;;;23.90;99.90;;;;;;5054176;28;20187;-73
2023/03/15 09:32:48;;;;;;;14.93;6.90;;;23.80;99.90;;;;;;5054026;28;20172;-74
2023/03/15 09:35:20;;;;;;;14.90;7.57;;;23.80;99.90;;;;;;5053995;28;20184;-73
2023/03/15 09:37:49;;;;;;;11.90;6.47;;;23.80;99.90;;;;;;5054193;28;20179;-73
2023/03/15 09:40:29;;;;;;;12.33;6.77;;;23.70;99.90;;;;;;5054013;28;20179;-74
2023/03/15 09:43:10;;;;;;;17.67;7.20;;;23.70;99.90;;;;;;5054304;28;20172;-73
2023/03/15 09:46:09;;;;;;;15.00;7.00;;;23.70;99.90;;;;;;5054389;28;20542;-74
2023/03/15 09:48:55;;;;;;;13.87;7.10;;;23.70;99.90;;;;;;5054116;28;20646;-73
2023/03/15 09:51:31;;;;;;;17.10;7.33;;;23.70;99.90;;;;;;5053697;28;20525;-72
2023/03/15 09:54:08;;;;;;;12.10;6.20;;;23.70;99.90;;;;;;5054140;28;20238;-73
2023/03/15 09:56:47;;;;;;;12.20;5.97;;;23.70;99.90;;;;;;5053716;28;20254;-73
2023/03/15 09:59:16;;;;;;;12.70;6.17;;;23.60;99.90;;;;;;5054167;28;20259;-73
2023/03/15 10:01:45;;;;;;;11.03;6.13;;;23.60;99.90;;;;;;5053380;28;20169;-72
2023/03/15 10:04:36;;;;;;;8.10;5.60;;;23.60;99.90;;;;;;5053672;28;20214;-73
2023/03/15 10:07:06;;;;;;;12.03;5.83;;;23.50;99.90;;;;;;5053385;28;20331;-73
2023/03/15 10:09:36;;;;;;;13.53;6.17;;;23.40;99.90;;;;;;5053787;28;20184;-73
2023/03/15 10:12:15;;;;;;;14.00;5.87;;;23.30;99.90;;;;;;5068552;28;20185;-72
2023/03/15 10:15:18;;;;;;;13.80;6.40;;;23.30;99.90;;;;;;5068678;28;20674;-73
2023/03/15 10:18:22;;;;;;;10.67;5.60;;;23.20;99.90;;;;;;5054006;28;20172;-73
2023/03/15 10:21:02;;;;;;;11.77;5.83;;;23.10;99.90;;;;;;5053506;28;20175;-73
2023/03/15 10:23:51;;;;;;;10.57;5.53;;;23.00;99.90;;;;;;5052870;28;20226;-72
2023/03/15 10:26:27;;;;;;;15.73;6.47;;;23.00;99.90;;;;;;5053125;28;20174;-72
2023/03/15 10:28:55;;;;;;;11.97;5.73;;;23.00;99.90;;;;;;5053270;28;20179;-73
2023/03/15 10:31:30;;;;;;;13.70;5.90;;;22.90;99.90;;;;;;5053041;28;20290;-72
2023/03/15 10:33:57;;;;;;;11.67;6.00;;;22.80;99.90;;;;;;5051799;28;20211;-73
2023/03/15 10:36:26;;;;;;;10.33;5.80;;;22.70;99.90;;;;;;5053229;28;20688;-72
2023/03/15 10:38:53;;;;;;;10.77;5.13;;;22.70;99.90;;;;;;5053135;28;20176;-73
2023/03/15 10:41:38;;;;;;;11.40;5.87;;;22.60;99.90;;;;;;5052841;28;20642;-73
2023/03/15 10:44:15;;;;;;;9.33;6.37;;;22.60;99.90;;;;;;5053151;28;20653;-73
2023/03/15 10:46:58;;;;;;;11.17;6.17;;;22.50;99.90;;;;;;5052851;28;20180;-75
2023/03/15 10:49:36;;;;;;;15.43;5.93;;;22.60;99.90;;;;;;5053180;28;20207;-72
2023/03/15 10:52:04;;;;;;;11.30;5.60;;;22.50;99.90;;;;;;5052990;28;20180;-72
2023/03/15 10:54:35;;;;;;;9.37;5.90;;;22.40;99.90;;;;;;5052858;28;20207;-73
2023/03/15 10:57:18;;;;;;;13.53;6.27;;;22.40;99.90;;;;;;5052930;28;20165;-72
2023/03/15 11:00:16;;;;;;;15.20;6.27;;;22.40;99.90;;;;;;5053044;28;20233;-72
2023/03/15 11:03:02;;;;;;;12.43;6.63;;;22.40;99.90;;;;;;5052909;28;20185;-73
2023/03/15 11:05:37;;;;;;;14.30;6.23;;;22.30;99.90;;;;;;5053160;28;20243;-72
2023/03/15 11:08:15;;;;;;;10.53;5.57;;;22.30;99.90;;;;;;5052857;28;20233;-72
2023/03/15 11:10:44;;;;;;;13.27;7.03;;;22.20;99.90;;;;;;5053009;28;20200;-73
2023/03/15 11:13:24;;;;;;;11.40;5.97;;;22.20;99.90;;;;;;5052776;28;20220;-72
2023/03/15 11:16:03;;;;;;;9.60;5.57;;;22.20;99.90;;;;;;5052934;28;20173;-73
2023/03/15 11:18:42;;;;;;;9.27;6.20;;;22.10;99.90;;;;;;5069401;28;20191;-73
2023/03/15 11:21:16;;;;;;;10.27;5.63;;;22.10;99.90;;;;;;5056915;28;20251;-73
2023/03/15 11:23:53;;;;;;;10.70;6.07;;;22.10;99.90;;;;;;5057172;28;20385;-73
2023/03/15 11:26:23;;;;;;;13.90;6.63;;;22.00;99.90;;;;;;5056899;28;20194;-72
2023/03/15 11:29:02;;;;;;;12.90;6.37;;;22.00;99.90;;;;;;5057181;28;20180;-73
2023/03/15 11:31:31;;;;;;;11.53;6.00;;;21.90;99.90;;;;;;5057079;28;20255;-74
2023/03/15 11:34:07;;;;;;;14.00;6.17;;;21.90;99.90;;;;;;5056909;28;20301;-73
2023/03/15 11:36:39;;;;;;;12.50;6.47;;;21.90;99.90;;;;;;5057150;28;20561;-73
2023/03/15 11:39:11;;;;;;;13.40;6.43;;;21.90;99.90;;;;;;5056593;28;20187;-71
2023/03/15 11:41:45;;;;;;;10.10;6.20;;;21.80;99.90;;;;;;5071436;28;20267;-72
2023/03/15 11:44:38;;;;;;;11.60;6.43;;;21.80;99.90;;;;;;5056253;28;20184;-73
2023/03/15 11:47:27;;;;;;;11.30;5.93;;;21.80;99.90;;;;;;5071572;28;20242;-72
2023/03/15 11:49:55;;;;;;;13.33;6.10;;;21.70;99.90;;;;;;5055997;28;20657;-71
2023/03/15 11:52:26;;;;;;;11.07;6.20;;;21.70;99.90;;;;;;5055990;28;20188;-72
2023/03/15 11:55:00;;;;;;;11.33;6.07;;;21.70;99.90;;;;;;5054782;28;20215;-72
2023/03/15 11:57:41;;;;;;;12.67;6.00;;;21.60;99.90;;;;;;5056159;28;20223;-73
2023/03/15 12:00:20;;;;;;;9.40;5.77;;;21.60;99.90;;;;;;5071231;28;20229;-72
2023/03/15 12:02:51;;;;;;;9.33;6.03;;;21.50;99.90;;;;;;5056012;28;20183;-72
2023/03/15 12:05:45;;;;;;;10.77;5.67;;;21.50;99.90;;;;;;5056115;28;20173;-72
2023/03/15 12:08:35;;;;;;;12.20;5.60;;;21.40;99.90;;;;;;5055798;28;20586;-72
2023/03/15 12:11:32;;;;;;;13.90;6.10;;;21.40;99.90;;;;;;5052446;28;20191;-72
2023/03/15 12:14:00;;;;;;;11.27;6.47;;;21.40;99.90;;;;;;5055799;28;20215;-72
2023/03/15 12:16:47;;;;;;;12.67;6.37;;;21.40;99.90;;;;;;5053456;28;20196;-74
2023/03/15 12:19:17;;;;;;;13.17;6.43;;;21.40;99.90;;;;;;5049834;28;20250;-73
2023/03/15 12:21:52;;;;;;;12.10;5.67;;;21.30;99.90;;;;;;5054591;28;20233;-72
2023/03/15 12:24:25;;;;;;;11.97;6.40;;;21.30;99.90;;;;;;5054686;28;20235;-70
2023/03/15 12:27:05;;;;;;;14.40;6.80;;;21.30;99.90;;;;;;5035858;28;20181;-70
2023/03/15 12:29:35;;;;;;;10.00;6.80;;;21.30;99.90;;;;;;5037642;28;20275;-72
2023/03/15 12:32:02;;;;;;;13.33;6.57;;;21.30;99.90;;;;;;5054798;28;20234;-72
2023/03/15 12:34:46;;;;;;;11.30;6.23;;;21.20;99.90;;;;;;5054923;28;20697;-72
2023/03/15 12:37:21;;;;;;;11.00;6.17;;;21.20;99.90;;;;;;5054517;28;20185;-72
2023/03/15 12:40:23;;;;;;;13.10;7.13;;;21.20;99.90;;;;;;5055072;28;20188;-71
2023/03/15 12:42:51;;;;;;;11.73;5.77;;;21.10;99.90;;;;;;5055113;28;20184;-72
2023/03/15 12:45:19;;;;;;;9.40;5.67;;;21.00;99.90;;;;;;5054012;28;20271;-71
2023/03/15 12:47:53;;;;;;;15.43;6.70;;;21.00;99.90;;;;;;5047889;28;20189;-71
2023/03/15 12:50:51;;;;;;;12.47;6.60;;;21.00;99.90;;;;;;5035553;28;20184;-73
2023/03/15 12:53:37;;;;;;;13.47;6.23;;;21.00;99.90;;;;;;5035031;28;20297;-71
2023/03/15 12:56:31;;;;;;;12.80;6.30;;;20.90;99.90;;;;;;5035052;28;20638;-73
2023/03/15 12:59:24;;;;;;;9.23;5.63;;;20.90;99.90;;;;;;5034746;28;20193;-72
2023/03/15 13:01:52;;;;;;;10.60;6.33;;;20.90;99.90;;;;;;5033965;28;20185;-71
2023/03/15 13:04:21;;;;;;;10.03;5.87;;;20.90;99.90;;;;;;5038170;28;20659;-72
2023/03/15 13:07:06;;;;;;;11.27;6.63;;;20.90;99.90;;;;;;5046460;28;20177;-73
2023/03/15 13:10:10;;;;;;;8.70;5.83;;;20.80;99.90;;;;;;5054736;28;20184;-70